logo
Rechercher aéroport 
image banner adimage banner adimage banner ad
image banner ad

FAEG - Elgin

Situé à Egnep, South Africa

ICAO - FAEG, IATA -

Données fournies par Airmate  

Information générale

Coordonnées: S34°10'17" E19°3'9"
Élévation : 1102 feet MSL.
Variation magnétique : -26° East
Voir autres Aéroports à Limpopo

Données opérationnelles

Special qualification required
Heure actuelle UTC:
Heure actuelle locale:
Météo à : - ( 0 km )
METAR: CYYB 220801Z AUTO 12011KT 6SM BR OVC003 16/16 A2979 RMK SLP091 DENSITY ALT 1800FT
Voir NOTAMs / SUP AIP / TFR affectant cet aéroport [VIEW]
Fréquences de communication: [VIEW]

Pistes:

Identifiant RWYQFULongueur (ft)Largeur (ft)SurfaceLDA (ft)
14118°2265120DIRT
32298°2265120DIRT

Coordonnées de l'aéroport

Adresse: Egnep South Africa

Vue satellite de FAEG